Time;durP1;ratioP1;P1;durP2;ratioP2;P2;SDS_P1;SDS_P2;PMS_P1;PMS_P2;Temp;Humidity;BMP_temperature;BMP_pressure;BME280_temperature;BME280_humidity;BME280_pressure;Samples;Min_cycle;Max_cycle;Signal;HPM_P1;HPM_P2
2023/05/02 00:00:48;;;;;;;6.03;5.27;;;8.90;99.90;;;;;;5054659;28;20190;-58
2023/05/02 00:03:15;;;;;;;5.70;4.83;;;8.90;99.90;;;;;;5065049;28;20669;-57
2023/05/02 00:05:41;;;;;;;4.90;4.40;;;8.90;99.90;;;;;;5062393;28;20273;-57
2023/05/02 00:08:06;;;;;;;7.07;5.10;;;8.90;99.90;;;;;;5064263;28;21083;-57
2023/05/02 00:10:32;;;;;;;4.83;4.40;;;8.90;99.90;;;;;;5067918;28;20174;-57
2023/05/02 00:12:58;;;;;;;5.37;4.83;;;8.90;99.90;;;;;;5065358;28;20667;-57
2023/05/02 00:15:26;;;;;;;5.13;4.47;;;8.90;99.90;;;;;;5057566;28;20433;-56
2023/05/02 00:17:51;;;;;;;5.80;5.20;;;8.90;99.90;;;;;;5068792;28;20209;-59
2023/05/02 00:20:17;;;;;;;9.20;4.70;;;8.90;99.90;;;;;;5058609;28;20438;-56
2023/05/02 00:22:43;;;;;;;10.43;4.70;;;8.80;99.90;;;;;;5066047;28;20197;-57
2023/05/02 00:25:09;;;;;;;7.27;4.93;;;8.80;99.90;;;;;;5068329;28;20270;-57
2023/05/02 00:27:35;;;;;;;11.47;4.40;;;8.80;99.90;;;;;;5059884;28;20202;-56
2023/05/02 00:30:01;;;;;;;6.73;5.10;;;8.80;99.90;;;;;;5060810;28;20435;-56
2023/05/02 00:32:27;;;;;;;6.00;5.00;;;8.80;99.90;;;;;;5066549;28;20213;-59
2023/05/02 00:34:53;;;;;;;6.10;5.00;;;8.80;99.90;;;;;;5065776;28;20471;-58
2023/05/02 00:37:18;;;;;;;6.60;4.80;;;8.80;99.90;;;;;;5065679;28;20202;-59
2023/05/02 00:39:44;;;;;;;5.90;4.90;;;8.80;99.90;;;;;;5061860;28;20678;-57
2023/05/02 00:42:10;;;;;;;8.77;5.60;;;8.80;99.90;;;;;;5066130;28;20194;-56
2023/05/02 00:44:36;;;;;;;6.43;5.43;;;8.80;99.90;;;;;;5063683;28;20608;-56
2023/05/02 00:47:02;;;;;;;8.40;5.73;;;8.90;99.90;;;;;;5065801;28;20251;-57
2023/05/02 00:49:29;;;;;;;8.00;6.00;;;8.90;99.90;;;;;;5060610;28;20530;-56
2023/05/02 00:51:55;;;;;;;7.23;5.90;;;8.90;99.90;;;;;;5061915;28;20923;-56
2023/05/02 00:54:21;;;;;;;13.60;6.83;;;8.90;99.90;;;;;;5058984;28;20445;-58
2023/05/02 00:56:46;;;;;;;11.83;7.00;;;8.90;99.90;;;;;;5063782;28;20188;-57
2023/05/02 00:59:13;;;;;;;8.53;7.03;;;8.90;99.90;;;;;;5064010;28;20663;-58
2023/05/02 01:01:52;;;;;;;10.90;7.73;;;8.90;99.90;;;;;;5063521;28;20186;-56
2023/05/02 01:04:54;;;;;;;10.67;8.00;;;8.90;99.90;;;;;;5063534;28;20434;-57
2023/05/02 01:07:53;;;;;;;8.93;7.23;;;8.90;99.90;;;;;;5062771;28;20524;-57
2023/05/02 01:10:27;;;;;;;12.07;7.60;;;8.90;99.90;;;;;;5064001;28;20425;-57
2023/05/02 01:12:58;;;;;;;10.13;7.40;;;8.90;99.90;;;;;;5063431;28;20475;-56
2023/05/02 01:15:24;;;;;;;10.40;7.60;;;8.90;99.90;;;;;;5063732;28;20761;-57
2023/05/02 01:17:53;;;;;;;9.67;7.70;;;8.90;99.90;;;;;;5064194;28;20545;-58
2023/05/02 01:20:22;;;;;;;9.57;7.37;;;8.90;99.90;;;;;;5057380;28;20448;-58
2023/05/02 01:22:48;;;;;;;9.07;6.47;;;8.90;99.90;;;;;;5062769;28;20471;-57
2023/05/02 01:25:43;;;;;;;9.77;6.80;;;8.90;99.90;;;;;;5061380;28;20429;-57
2023/05/02 01:28:24;;;;;;;9.03;6.80;;;8.80;99.90;;;;;;5064048;28;20452;-57
2023/05/02 01:30:51;;;;;;;7.67;6.03;;;8.80;99.90;;;;;;5059410;28;20990;-59
2023/05/02 01:33:18;;;;;;;6.77;5.80;;;8.80;99.90;;;;;;5060982;28;20899;-58
2023/05/02 01:35:48;;;;;;;8.40;6.53;;;8.70;99.90;;;;;;5057951;28;20551;-57
2023/05/02 01:38:17;;;;;;;14.80;5.80;;;8.70;99.90;;;;;;5064853;28;20459;-57
2023/05/02 01:40:45;;;;;;;12.83;5.60;;;8.60;99.90;;;;;;5060244;28;20956;-57
2023/05/02 01:43:12;;;;;;;8.87;6.20;;;8.60;99.90;;;;;;5058235;28;20457;-57
2023/05/02 01:45:39;;;;;;;8.87;5.53;;;8.60;99.90;;;;;;5061218;28;20445;-57
2023/05/02 01:48:06;;;;;;;7.23;5.97;;;8.60;99.90;;;;;;5063097;28;20458;-58
2023/05/02 01:50:33;;;;;;;6.53;5.70;;;8.50;99.90;;;;;;5059845;28;20429;-58
2023/05/02 01:53:00;;;;;;;7.20;5.23;;;8.50;99.90;;;;;;5061104;28;20936;-58
2023/05/02 01:55:27;;;;;;;6.63;5.47;;;8.50;99.90;;;;;;5058104;28;20463;-58
2023/05/02 01:57:54;;;;;;;6.23;5.63;;;8.50;99.90;;;;;;5057048;28;20495;-60
2023/05/02 02:00:22;;;;;;;7.23;6.23;;;8.50;99.90;;;;;;5056085;28;20416;-58
2023/05/02 02:02:49;;;;;;;9.50;6.97;;;8.50;99.90;;;;;;5061463;28;20560;-58
2023/05/02 02:05:16;;;;;;;9.60;6.80;;;8.40;99.90;;;;;;5066625;28;20432;-59
2023/05/02 02:07:42;;;;;;;10.03;6.50;;;8.50;99.90;;;;;;5058808;28;20897;-59
2023/05/02 02:10:08;;;;;;;9.07;6.70;;;8.40;99.90;;;;;;5048972;28;20437;-59
2023/05/02 02:13:03;;;;;;;9.40;6.30;;;8.40;99.90;;;;;;5065121;28;20448;-58
2023/05/02 02:15:34;;;;;;;10.53;7.20;;;8.40;99.90;;;;;;5051019;28;20430;-59
2023/05/02 02:18:04;;;;;;;12.90;6.80;;;8.40;99.90;;;;;;5080735;28;20528;-59
2023/05/02 02:20:31;;;;;;;9.20;7.40;;;8.30;99.90;;;;;;5058639;28;20436;-58
2023/05/02 02:22:59;;;;;;;9.70;7.40;;;8.30;99.90;;;;;;5063082;28;21047;-57
2023/05/02 02:25:26;;;;;;;11.37;7.97;;;8.30;99.90;;;;;;5059838;28;20426;-58
2023/05/02 02:27:52;;;;;;;9.93;8.03;;;8.30;99.90;;;;;;5062062;28;20506;-57
2023/05/02 02:30:18;;;;;;;8.73;7.13;;;8.30;99.90;;;;;;5065998;28;20432;-58
2023/05/02 02:32:43;;;;;;;13.37;8.70;;;8.20;99.90;;;;;;5057056;28;20438;-58
2023/05/02 02:35:09;;;;;;;12.73;8.70;;;8.20;99.90;;;;;;5063666;28;20276;-58
2023/05/02 02:38:14;;;;;;;43.27;10.47;;;8.20;99.90;;;;;;5061054;28;20685;-57
2023/05/02 02:40:53;;;;;;;12.13;8.60;;;8.20;99.90;;;;;;5049472;28;20532;-57
2023/05/02 02:43:52;;;;;;;10.20;8.03;;;8.20;99.90;;;;;;5064310;28;20464;-58
2023/05/02 02:47:01;;;;;;;16.40;7.90;;;8.20;99.90;;;;;;5060594;28;20421;-58
2023/05/02 02:50:12;;;;;;;13.30;7.40;;;8.20;99.90;;;;;;5056486;28;20457;-58
2023/05/02 02:52:55;;;;;;;41.23;8.53;;;8.20;99.90;;;;;;5054098;28;20432;-58
2023/05/02 02:55:30;;;;;;;166.53;12.87;;;8.20;99.90;;;;;;5055184;28;21057;-58
2023/05/02 02:58:08;;;;;;;126.33;10.73;;;8.20;99.90;;;;;;5062254;28;20487;-58
2023/05/02 03:00:35;;;;;;;28.73;7.80;;;8.10;99.90;;;;;;5059440;28;20440;-58
2023/05/02 03:03:00;;;;;;;45.40;8.63;;;8.00;99.90;;;;;;5062409;28;20987;-57
2023/05/02 03:05:26;;;;;;;19.30;7.90;;;8.00;99.90;;;;;;5064958;28;20425;-58
2023/05/02 03:07:52;;;;;;;22.10;6.93;;;7.90;99.90;;;;;;5061622;28;20763;-58
2023/05/02 03:10:17;;;;;;;67.93;8.97;;;8.00;99.90;;;;;;5062027;28;20257;-58
2023/05/02 03:12:43;;;;;;;32.87;8.30;;;7.90;99.90;;;;;;5059659;28;20193;-58
2023/05/02 03:15:37;;;;;;;30.47;7.87;;;7.90;99.90;;;;;;5052192;28;20186;-57
2023/05/02 03:18:03;;;;;;;33.40;8.70;;;7.90;99.90;;;;;;5064064;28;20205;-57
2023/05/02 03:20:28;;;;;;;52.63;9.53;;;7.90;99.90;;;;;;5055753;28;20429;-57
2023/05/02 03:22:54;;;;;;;12.07;7.37;;;7.90;99.90;;;;;;5057931;28;20253;-57
2023/05/02 03:25:19;;;;;;;21.27;8.27;;;7.90;99.90;;;;;;5057237;28;20676;-58
2023/05/02 03:27:45;;;;;;;12.83;8.27;;;7.90;99.90;;;;;;5062056;28;20248;-59
2023/05/02 03:30:11;;;;;;;27.50;8.80;;;7.90;99.90;;;;;;5064073;28;20225;-60
2023/05/02 03:32:36;;;;;;;46.73;8.97;;;7.80;99.90;;;;;;5063576;28;20186;-58
2023/05/02 03:35:02;;;;;;;16.53;7.10;;;7.80;99.90;;;;;;5063428;28;20262;-58
2023/05/02 03:37:28;;;;;;;40.40;7.97;;;7.80;99.90;;;;;;5065072;28;20225;-58
2023/05/02 03:39:54;;;;;;;22.70;7.90;;;7.70;99.90;;;;;;5065231;28;20441;-58
2023/05/02 03:42:20;;;;;;;19.53;7.90;;;7.60;99.90;;;;;;5065614;28;20194;-57
2023/05/02 03:44:46;;;;;;;33.03;8.47;;;7.60;99.90;;;;;;5055589;28;20428;-57
2023/05/02 03:47:12;;;;;;;16.40;7.87;;;7.60;99.90;;;;;;5062765;28;20471;-57
2023/05/02 03:49:39;;;;;;;13.83;7.63;;;7.50;99.90;;;;;;5064622;28;20170;-58
2023/05/02 03:52:04;;;;;;;25.33;6.80;;;7.50;99.90;;;;;;5059086;28;20436;-57
2023/05/02 03:54:32;;;;;;;9.60;7.20;;;7.50;99.90;;;;;;5056659;28;20440;-57
2023/05/02 03:56:58;;;;;;;21.47;7.07;;;7.60;99.90;;;;;;5056222;28;20262;-56
2023/05/02 03:59:24;;;;;;;11.87;7.17;;;7.60;99.90;;;;;;5056214;28;20562;-56
2023/05/02 04:01:50;;;;;;;14.70;7.63;;;7.60;99.90;;;;;;5054051;28;20212;-56
2023/05/02 04:04:15;;;;;;;18.17;7.10;;;7.60;99.90;;;;;;5054736;28;20278;-56
2023/05/02 04:06:41;;;;;;;12.00;6.53;;;7.60;99.90;;;;;;5056817;28;20178;-55
2023/05/02 04:09:07;;;;;;;16.70;6.80;;;7.60;99.90;;;;;;5056850;28;20292;-55
2023/05/02 04:11:32;;;;;;;21.50;8.57;;;7.50;99.90;;;;;;5060066;28;20293;-58
2023/05/02 04:13:58;;;;;;;19.50;7.70;;;7.50;99.90;;;;;;5059642;28;20177;-57
2023/05/02 04:16:24;;;;;;;12.03;7.40;;;7.50;99.90;;;;;;5055391;28;20201;-56
2023/05/02 04:18:50;;;;;;;13.50;7.47;;;7.50;99.90;;;;;;5061298;28;20203;-57
2023/05/02 04:21:15;;;;;;;31.07;9.73;;;7.50;99.90;;;;;;5057505;28;20553;-57
2023/05/02 04:23:41;;;;;;;113.73;10.20;;;7.50;99.90;;;;;;5060871;28;20244;-58
2023/05/02 04:26:07;;;;;;;27.07;8.50;;;7.50;99.90;;;;;;5056074;28;20213;-58
2023/05/02 04:28:34;;;;;;;29.40;7.97;;;7.50;99.90;;;;;;5056212;28;20190;-58
2023/05/02 04:31:00;;;;;;;81.87;11.00;;;7.40;99.90;;;;;;5051572;28;20182;-58
2023/05/02 04:33:26;;;;;;;109.43;10.90;;;7.40;99.90;;;;;;5060647;28;20517;-58
2023/05/02 04:35:52;;;;;;;42.10;9.33;;;7.40;99.90;;;;;;5058101;28;21020;-57
2023/05/02 04:38:17;;;;;;;77.73;9.50;;;7.30;99.90;;;;;;5040584;28;20219;-56
2023/05/02 04:40:43;;;;;;;87.23;8.83;;;7.30;99.90;;;;;;5032867;28;20633;-57
2023/05/02 04:43:09;;;;;;;98.47;9.53;;;7.30;99.90;;;;;;5055695;28;20206;-57
2023/05/02 04:45:35;;;;;;;15.97;7.90;;;7.30;99.90;;;;;;5060099;28;20167;-57
2023/05/02 04:48:01;;;;;;;24.50;8.40;;;7.30;99.90;;;;;;5061708;28;20229;-57
2023/05/02 04:50:28;;;;;;;34.67;8.60;;;7.30;99.90;;;;;;5054739;28;21037;-57
2023/05/02 04:52:53;;;;;;;41.00;9.27;;;7.30;99.90;;;;;;5061908;28;20920;-58
2023/05/02 04:55:19;;;;;;;46.70;11.10;;;7.40;99.90;;;;;;5061277;28;20435;-59
2023/05/02 04:57:45;;;;;;;22.80;9.63;;;7.40;99.90;;;;;;5062774;28;20605;-58
2023/05/02 05:00:11;;;;;;;14.87;8.70;;;7.40;99.90;;;;;;5062154;28;20183;-58
2023/05/02 05:02:38;;;;;;;16.60;11.03;;;7.40;99.90;;;;;;5061217;28;20198;-58
2023/05/02 05:05:04;;;;;;;16.60;9.63;;;7.40;99.90;;;;;;5066088;28;20436;-58
2023/05/02 05:07:30;;;;;;;14.07;10.13;;;7.40;99.90;;;;;;5060553;28;21007;-57
2023/05/02 05:09:55;;;;;;;17.30;10.83;;;7.40;99.90;;;;;;5062391;28;20464;-58
2023/05/02 05:12:21;;;;;;;23.23;11.20;;;7.50;99.90;;;;;;5066421;28;20181;-58
2023/05/02 05:14:46;;;;;;;26.10;10.80;;;7.50;99.90;;;;;;5064838;28;20181;-58
2023/05/02 05:17:12;;;;;;;17.70;10.60;;;7.50;99.90;;;;;;5061421;28;20624;-58
2023/05/02 05:19:38;;;;;;;15.53;10.37;;;7.60;99.90;;;;;;5057116;28;20651;-57
2023/05/02 05:22:03;;;;;;;14.50;11.37;;;7.60;99.90;;;;;;5057275;28;20225;-57
2023/05/02 05:24:29;;;;;;;18.50;11.20;;;7.60;99.90;;;;;;5058935;28;20175;-57
2023/05/02 05:26:54;;;;;;;21.47;12.60;;;7.70;99.90;;;;;;5062694;28;20573;-57
2023/05/02 05:29:20;;;;;;;20.77;12.13;;;7.70;99.90;;;;;;5061929;28;20178;-58
2023/05/02 05:31:46;;;;;;;20.33;12.27;;;7.70;99.90;;;;;;5062165;28;20611;-58
2023/05/02 05:34:13;;;;;;;18.10;12.90;;;7.80;99.90;;;;;;5060635;28;20167;-58
2023/05/02 05:36:41;;;;;;;20.10;12.30;;;7.80;99.90;;;;;;5062575;28;20524;-58
2023/05/02 05:39:07;;;;;;;18.23;11.80;;;7.90;99.90;;;;;;5061931;28;20425;-57
2023/05/02 05:41:34;;;;;;;21.30;12.80;;;7.90;99.90;;;;;;5061734;28;20924;-57
2023/05/02 05:43:59;;;;;;;18.13;12.10;;;7.90;99.90;;;;;;5064523;28;20308;-58
2023/05/02 05:46:25;;;;;;;22.10;12.87;;;8.00;99.90;;;;;;5064569;28;20532;-58
2023/05/02 05:48:51;;;;;;;18.57;12.53;;;8.10;99.90;;;;;;5066172;28;20498;-58
2023/05/02 05:51:17;;;;;;;24.40;13.77;;;8.10;99.90;;;;;;5056961;28;20226;-58
2023/05/02 05:53:42;;;;;;;23.00;13.40;;;8.20;99.90;;;;;;5055697;28;20187;-58
2023/05/02 05:56:12;;;;;;;24.63;14.53;;;8.30;99.90;;;;;;5060367;28;20186;-57
2023/05/02 05:58:38;;;;;;;20.87;14.47;;;8.30;99.90;;;;;;5063727;28;20214;-57
2023/05/02 06:01:05;;;;;;;20.50;13.97;;;8.40;99.90;;;;;;5060462;28;20468;-58
2023/05/02 06:03:31;;;;;;;25.17;14.40;;;8.40;99.90;;;;;;5075301;28;20487;-59
2023/05/02 06:05:56;;;;;;;20.83;13.60;;;8.50;99.90;;;;;;5063960;28;20944;-57
2023/05/02 06:08:22;;;;;;;25.77;14.20;;;8.60;99.90;;;;;;5054840;28;20455;-57
2023/05/02 06:10:47;;;;;;;19.57;13.67;;;8.60;99.90;;;;;;5063091;28;20209;-57
2023/05/02 06:13:13;;;;;;;21.83;14.57;;;8.60;99.90;;;;;;5058673;28;20257;-58
2023/05/02 06:15:39;;;;;;;22.83;14.10;;;8.60;99.90;;;;;;5057424;28;20286;-58
2023/05/02 06:18:04;;;;;;;23.20;14.40;;;8.70;99.90;;;;;;5064019;28;20635;-57
2023/05/02 06:20:30;;;;;;;22.37;15.17;;;8.70;99.90;;;;;;5057125;28;20186;-57
2023/05/02 06:22:55;;;;;;;21.07;14.63;;;8.80;99.90;;;;;;5059121;28;20206;-58
2023/05/02 06:25:21;;;;;;;23.47;15.57;;;8.90;99.90;;;;;;5055594;28;20175;-57
2023/05/02 06:27:47;;;;;;;22.17;15.40;;;9.00;99.90;;;;;;5056909;28;20255;-57
2023/05/02 06:30:12;;;;;;;24.03;16.10;;;9.10;99.90;;;;;;5061337;28;20174;-58
2023/05/02 06:32:38;;;;;;;20.53;14.70;;;9.10;99.90;;;;;;5061620;28;20263;-59
2023/05/02 06:35:04;;;;;;;22.73;15.30;;;9.20;99.90;;;;;;5062412;28;20210;-58
2023/05/02 06:37:34;;;;;;;23.20;15.83;;;9.30;99.90;;;;;;5060841;28;20687;-57
2023/05/02 06:40:00;;;;;;;32.73;18.93;;;9.40;99.90;;;;;;5060612;28;20238;-59
2023/05/02 06:42:25;;;;;;;23.23;15.47;;;9.40;99.90;;;;;;5060585;28;20469;-59
2023/05/02 06:44:51;;;;;;;26.70;15.40;;;9.50;99.90;;;;;;5061511;28;20670;-57
2023/05/02 06:47:16;;;;;;;30.60;16.40;;;9.50;99.90;;;;;;5065012;28;20194;-59
2023/05/02 06:49:42;;;;;;;24.47;15.20;;;9.60;99.90;;;;;;5059942;28;20182;-57
2023/05/02 06:52:08;;;;;;;24.27;15.83;;;9.60;99.90;;;;;;5059035;28;20183;-58
2023/05/02 06:54:34;;;;;;;29.13;17.33;;;9.70;99.90;;;;;;5062265;28;20221;-59
2023/05/02 06:57:01;;;;;;;29.87;19.07;;;9.70;99.90;;;;;;5062323;28;20206;-57
2023/05/02 06:59:26;;;;;;;22.47;15.87;;;9.80;99.90;;;;;;5057637;28;20444;-57
2023/05/02 07:01:52;;;;;;;24.50;15.50;;;9.90;99.90;;;;;;5059707;28;20809;-57
2023/05/02 07:04:18;;;;;;;23.73;16.10;;;10.00;99.90;;;;;;5060360;28;20509;-57
2023/05/02 07:06:44;;;;;;;21.50;16.00;;;10.10;99.90;;;;;;5054893;28;20178;-57
2023/05/02 07:09:10;;;;;;;23.60;16.30;;;10.30;99.90;;;;;;5059040;28;20182;-57
2023/05/02 07:11:36;;;;;;;18.47;13.47;;;10.40;99.90;;;;;;5063506;28;20877;-58
2023/05/02 07:14:01;;;;;;;26.93;15.83;;;10.60;99.90;;;;;;5061099;28;20804;-58
2023/05/02 07:16:27;;;;;;;20.57;14.73;;;10.80;99.90;;;;;;5056078;28;20600;-57
2023/05/02 07:18:53;;;;;;;19.63;13.80;;;11.00;99.90;;;;;;5052682;28;20206;-57
2023/05/02 07:21:18;;;;;;;27.90;12.93;;;11.00;99.90;;;;;;5055591;28;20735;-58
2023/05/02 07:23:44;;;;;;;20.73;13.80;;;11.00;99.90;;;;;;5058441;28;20206;-58
2023/05/02 07:26:10;;;;;;;13.63;10.13;;;11.00;99.90;;;;;;5054887;28;20182;-57
2023/05/02 07:28:35;;;;;;;14.80;9.80;;;11.00;99.90;;;;;;5055251;28;20361;-58
2023/05/02 07:31:01;;;;;;;13.93;9.10;;;11.00;99.90;;;;;;5058596;28;20232;-57
2023/05/02 07:33:27;;;;;;;12.97;8.77;;;11.00;99.90;;;;;;5055336;28;20245;-57
2023/05/02 07:35:52;;;;;;;12.30;9.17;;;11.10;99.90;;;;;;5053901;28;20595;-58
2023/05/02 07:38:18;;;;;;;12.30;9.70;;;11.10;99.90;;;;;;5056237;28;20598;-57
2023/05/02 07:40:45;;;;;;;12.73;8.93;;;11.20;99.90;;;;;;5057439;28;20270;-57
2023/05/02 07:43:11;;;;;;;10.43;8.67;;;11.30;99.90;;;;;;5056234;28;20275;-58
2023/05/02 07:45:37;;;;;;;13.93;8.80;;;11.40;99.90;;;;;;5055936;28;20424;-57
2023/05/02 07:48:03;;;;;;;15.03;10.57;;;11.40;99.90;;;;;;5067442;28;20444;-57
2023/05/02 07:50:28;;;;;;;16.43;10.63;;;11.50;99.90;;;;;;5056308;28;20202;-58
2023/05/02 07:52:55;;;;;;;17.10;10.23;;;11.60;99.90;;;;;;5057153;28;20221;-58
2023/05/02 07:55:20;;;;;;;14.20;10.90;;;11.60;99.90;;;;;;5058263;28;20194;-57
2023/05/02 07:57:46;;;;;;;14.77;12.10;;;11.60;99.90;;;;;;5057332;28;20469;-58
2023/05/02 08:00:13;;;;;;;20.40;11.60;;;11.70;99.90;;;;;;5059077;28;20273;-57
2023/05/02 08:02:40;;;;;;;12.17;10.43;;;11.80;99.90;;;;;;5060000;28;20286;-57
2023/05/02 08:05:06;;;;;;;13.60;10.47;;;11.90;99.90;;;;;;5061492;28;20448;-57
2023/05/02 08:07:34;;;;;;;13.23;10.50;;;11.90;99.90;;;;;;5060200;28;20444;-58
2023/05/02 08:10:00;;;;;;;12.00;9.70;;;11.90;99.90;;;;;;5062901;28;20520;-57
2023/05/02 08:12:25;;;;;;;14.27;8.83;;;12.10;99.90;;;;;;5064674;28;21002;-57
2023/05/02 08:14:51;;;;;;;12.37;9.30;;;12.30;99.90;;;;;;5063759;28;20436;-57
2023/05/02 08:17:17;;;;;;;13.60;8.83;;;12.40;99.90;;;;;;5059381;28;20206;-58
2023/05/02 08:19:43;;;;;;;13.10;10.00;;;12.60;99.90;;;;;;5063432;28;20190;-58
2023/05/02 08:22:08;;;;;;;12.13;8.50;;;12.70;99.90;;;;;;5064924;28;20233;-57
2023/05/02 08:24:34;;;;;;;11.63;9.33;;;12.80;99.90;;;;;;5056111;28;20488;-58
2023/05/02 08:27:02;;;;;;;8.70;7.80;;;12.90;99.90;;;;;;5067082;28;20206;-58
2023/05/02 08:29:28;;;;;;;10.70;9.53;;;13.10;99.90;;;;;;5065572;28;20183;-59
2023/05/02 08:31:54;;;;;;;10.07;8.60;;;13.20;99.90;;;;;;5058938;28;20451;-59
2023/05/02 08:34:20;;;;;;;10.10;8.20;;;13.40;99.90;;;;;;5060431;28;20511;-58
2023/05/02 08:36:46;;;;;;;10.50;8.47;;;13.40;99.90;;;;;;5061451;28;20182;-58
2023/05/02 08:39:11;;;;;;;9.93;8.93;;;13.40;99.90;;;;;;5061479;28;20650;-58
2023/05/02 08:41:37;;;;;;;13.40;9.07;;;13.40;99.90;;;;;;5061597;28;20429;-59
2023/05/02 08:44:05;;;;;;;9.97;8.00;;;13.50;99.90;;;;;;5062442;28;20206;-59
2023/05/02 08:46:34;;;;;;;10.20;8.00;;;13.60;99.90;;;;;;5060080;28;20433;-59
2023/05/02 08:49:01;;;;;;;9.87;8.40;;;13.60;99.90;;;;;;5060681;28;20520;-59
2023/05/02 08:51:28;;;;;;;10.93;8.27;;;13.60;99.90;;;;;;5062272;28;20494;-59
2023/05/02 08:53:54;;;;;;;10.70;8.10;;;13.60;99.90;;;;;;5064313;28;20436;-59
2023/05/02 08:56:20;;;;;;;9.53;8.20;;;13.50;99.90;;;;;;5062880;28;21097;-57
2023/05/02 08:58:46;;;;;;;10.50;8.47;;;13.50;99.90;;;;;;5064665;28;20586;-59
2023/05/02 09:01:16;;;;;;;9.83;8.33;;;13.40;99.90;;;;;;5061156;28;21031;-58
2023/05/02 09:03:43;;;;;;;10.17;8.43;;;13.30;99.90;;;;;;5056702;28;20209;-57
2023/05/02 09:06:20;;;;;;;12.90;8.37;;;13.10;99.90;;;;;;5060087;28;20475;-60
2023/05/02 09:08:49;;;;;;;10.67;8.33;;;12.90;99.90;;;;;;5062250;28;20557;-59
2023/05/02 09:11:16;;;;;;;10.60;8.57;;;12.80;99.90;;;;;;5057095;28;20501;-59
2023/05/02 09:13:45;;;;;;;9.73;8.37;;;12.70;99.90;;;;;;5061459;28;20436;-58
2023/05/02 09:16:21;;;;;;;9.97;7.77;;;12.60;99.90;;;;;;5059185;28;20479;-59
2023/05/02 09:18:54;;;;;;;7.83;6.93;;;12.50;99.90;;;;;;5062942;28;20468;-59
2023/05/02 09:21:25;;;;;;;11.33;7.73;;;12.50;99.90;;;;;;5059131;28;20445;-59
2023/05/02 09:23:57;;;;;;;10.57;8.47;;;12.40;99.90;;;;;;5059725;28;20492;-58
2023/05/02 09:26:26;;;;;;;9.63;7.97;;;12.30;99.90;;;;;;5064017;28;20433;-59
2023/05/02 09:28:54;;;;;;;11.63;8.40;;;12.30;99.90;;;;;;5060604;28;20452;-59
2023/05/02 09:31:29;;;;;;;11.87;9.00;;;12.30;99.90;;;;;;5063679;28;20424;-59
2023/05/02 09:33:55;;;;;;;12.13;8.87;;;12.30;99.90;;;;;;5064513;28;20857;-59
2023/05/02 09:36:21;;;;;;;9.90;8.37;;;12.30;99.90;;;;;;5058840;28;20436;-59
2023/05/02 09:38:49;;;;;;;9.47;8.47;;;12.30;99.90;;;;;;5062209;28;20504;-59
2023/05/02 09:41:16;;;;;;;10.30;8.30;;;12.40;99.90;;;;;;5057218;28;20441;-59
2023/05/02 09:43:42;;;;;;;11.03;7.93;;;12.40;99.90;;;;;;5065240;28;20585;-59
2023/05/02 09:46:11;;;;;;;10.90;8.03;;;12.40;99.90;;;;;;5065805;28;20440;-59
2023/05/02 09:48:56;;;;;;;9.37;8.07;;;12.50;99.90;;;;;;5061313;28;20496;-59
2023/05/02 09:51:24;;;;;;;9.87;7.73;;;12.50;99.90;;;;;;5060868;28;20444;-58
2023/05/02 09:53:50;;;;;;;8.20;7.40;;;12.60;99.90;;;;;;5063771;28;20540;-55
2023/05/02 09:56:17;;;;;;;9.50;8.23;;;12.70;99.90;;;;;;5056198;28;20908;-56
2023/05/02 09:58:43;;;;;;;11.77;9.10;;;12.80;99.90;;;;;;5059206;28;20512;-57
2023/05/02 10:01:19;;;;;;;12.33;9.13;;;12.90;99.90;;;;;;5061319;28;20433;-56
2023/05/02 10:03:47;;;;;;;11.33;8.30;;;13.00;99.90;;;;;;5059471;28;20465;-58
2023/05/02 10:06:13;;;;;;;9.47;8.03;;;13.10;99.90;;;;;;5060865;28;21719;-51
2023/05/02 10:08:41;;;;;;;10.27;8.23;;;13.20;99.90;;;;;;5054264;28;20471;-57
2023/05/02 10:11:07;;;;;;;11.10;7.70;;;13.20;99.90;;;;;;5068921;28;20458;-57
2023/05/02 10:13:36;;;;;;;8.80;7.53;;;13.30;99.90;;;;;;5057814;28;20437;-57
2023/05/02 10:16:04;;;;;;;17.17;8.87;;;13.30;99.90;;;;;;5059955;28;20448;-57
2023/05/02 10:18:39;;;;;;;9.37;7.30;;;13.30;99.90;;;;;;5059939;28;20460;-57
2023/05/02 10:21:09;;;;;;;9.10;7.40;;;13.30;99.90;;;;;;5051114;28;20449;-55
2023/05/02 10:23:36;;;;;;;9.80;7.20;;;13.30;99.90;;;;;;5063975;28;21312;-57
2023/05/02 10:26:02;;;;;;;9.50;6.93;;;13.40;99.90;;;;;;5065110;28;20471;-56
2023/05/02 10:28:29;;;;;;;11.67;7.50;;;13.40;99.30;;;;;;5063435;28;20452;-56
2023/05/02 10:30:56;;;;;;;13.07;8.53;;;13.50;99.90;;;;;;5058787;28;20178;-57
2023/05/02 10:33:22;;;;;;;11.23;8.70;;;13.50;99.90;;;;;;5059071;28;20432;-57
2023/05/02 10:35:48;;;;;;;10.20;7.47;;;13.60;99.10;;;;;;5055264;28;20570;-56
2023/05/02 10:38:19;;;;;;;9.80;8.10;;;13.70;98.80;;;;;;5060798;28;20567;-57
2023/05/02 10:40:56;;;;;;;9.40;7.77;;;13.80;99.30;;;;;;5062960;28;20178;-57
2023/05/02 10:43:33;;;;;;;9.43;7.50;;;13.80;97.00;;;;;;5062309;28;20467;-58
2023/05/02 10:45:58;;;;;;;13.30;8.73;;;13.90;95.60;;;;;;5063228;28;20436;-57
2023/05/02 10:48:25;;;;;;;12.50;8.73;;;13.90;94.20;;;;;;5062919;28;20986;-58
2023/05/02 10:50:57;;;;;;;10.93;8.57;;;14.00;93.90;;;;;;5056724;28;20813;-58
2023/05/02 10:53:26;;;;;;;14.13;9.10;;;14.00;90.40;;;;;;5060037;28;20451;-57
2023/05/02 10:56:12;;;;;;;14.83;8.60;;;14.10;90.10;;;;;;5061875;28;20536;-58
2023/05/02 10:58:38;;;;;;;11.53;8.20;;;14.20;89.10;;;;;;5059814;28;20480;-57
2023/05/02 11:01:29;;;;;;;8.90;7.43;;;14.30;87.90;;;;;;5058552;28;20993;-59
2023/05/02 11:04:05;;;;;;;13.80;8.17;;;14.40;88.30;;;;;;5060843;28;20464;-59
2023/05/02 11:06:36;;;;;;;9.10;7.57;;;14.50;87.90;;;;;;5077864;28;20417;-58
2023/05/02 11:09:17;;;;;;;8.53;6.93;;;14.60;82.10;;;;;;5061976;28;20424;-57
2023/05/02 11:11:43;;;;;;;11.10;7.80;;;14.70;81.30;;;;;;5054212;28;20523;-57
2023/05/02 11:14:10;;;;;;;9.60;7.37;;;14.70;83.70;;;;;;5059423;28;20482;-57
2023/05/02 11:17:00;;;;;;;15.80;8.67;;;14.80;87.70;;;;;;5059390;28;20187;-57
2023/05/02 11:19:52;;;;;;;9.53;7.60;;;15.00;85.90;;;;;;5061469;28;20466;-57
2023/05/02 11:22:18;;;;;;;11.03;8.47;;;15.20;83.30;;;;;;5029635;28;20554;-57
2023/05/02 11:24:48;;;;;;;10.97;7.20;;;15.40;80.20;;;;;;5058861;28;20520;-57
2023/05/02 11:27:32;;;;;;;7.73;6.43;;;15.60;76.50;;;;;;5062709;28;20271;-57
2023/05/02 11:30:03;;;;;;;10.00;6.40;;;15.70;70.00;;;;;;5055364;28;20520;-57
2023/05/02 11:32:52;;;;;;;11.73;6.80;;;15.60;68.40;;;;;;5062256;28;20436;-57
2023/05/02 11:35:21;;;;;;;9.30;7.07;;;15.60;68.10;;;;;;5049492;28;20446;-57
2023/05/02 11:37:58;;;;;;;8.60;6.63;;;15.70;66.90;;;;;;5062233;28;20468;-57
2023/05/02 11:40:25;;;;;;;8.30;7.13;;;15.80;67.60;;;;;;5053361;28;20432;-57
2023/05/02 11:42:51;;;;;;;10.40;8.07;;;15.90;68.60;;;;;;5060647;28;20522;-57
2023/05/02 11:45:17;;;;;;;10.07;6.67;;;15.90;67.60;;;;;;5061434;28;20575;-57
2023/05/02 11:47:45;;;;;;;9.83;6.27;;;16.00;64.70;;;;;;5061636;28;20278;-63
2023/05/02 11:50:11;;;;;;;8.73;6.07;;;16.10;65.90;;;;;;5058368;28;20757;-57
2023/05/02 11:52:42;;;;;;;11.80;8.70;;;16.10;65.70;;;;;;5058373;28;20491;-57
2023/05/02 11:55:11;;;;;;;9.93;7.80;;;16.10;64.80;;;;;;5059109;28;20965;-57
2023/05/02 11:57:38;;;;;;;8.97;7.73;;;16.20;63.80;;;;;;5053871;28;20453;-57
2023/05/02 12:00:04;;;;;;;9.00;7.13;;;16.60;64.90;;;;;;5059802;28;20528;-56
2023/05/02 12:02:39;;;;;;;10.53;7.33;;;16.90;62.70;;;;;;5059636;28;20493;-57
2023/05/02 12:05:06;;;;;;;9.30;7.27;;;16.90;62.00;;;;;;5060252;28;20613;-56
2023/05/02 12:07:39;;;;;;;8.40;6.10;;;17.00;62.80;;;;;;5060053;28;20482;-57
2023/05/02 12:10:06;;;;;;;14.07;7.20;;;17.40;63.40;;;;;;5067208;28;20474;-57
2023/05/02 12:12:32;;;;;;;8.10;6.23;;;17.70;62.40;;;;;;5063113;28;20527;-57
2023/05/02 12:15:02;;;;;;;7.20;6.37;;;17.90;60.20;;;;;;5063984;28;20452;-57
2023/05/02 12:17:28;;;;;;;6.73;5.97;;;18.20;58.60;;;;;;5063212;28;20286;-57
2023/05/02 12:19:54;;;;;;;8.20;6.70;;;18.10;56.40;;;;;;5063483;28;20863;-57
2023/05/02 12:22:22;;;;;;;7.23;6.40;;;17.90;56.10;;;;;;5060793;28;20539;-56
2023/05/02 12:24:49;;;;;;;7.50;6.00;;;17.70;55.80;;;;;;5065369;28;20253;-57
2023/05/02 12:27:15;;;;;;;7.80;6.20;;;17.40;55.60;;;;;;5060126;28;20456;-56
2023/05/02 12:29:44;;;;;;;6.63;5.80;;;17.10;55.80;;;;;;5058536;28;20455;-57
2023/05/02 12:32:10;;;;;;;8.60;6.80;;;16.90;55.90;;;;;;5063259;28;20813;-57
2023/05/02 12:34:36;;;;;;;7.43;6.33;;;16.70;56.10;;;;;;5064348;28;20497;-57
2023/05/02 12:37:02;;;;;;;6.43;5.77;;;16.80;57.00;;;;;;5062584;28;20455;-57
2023/05/02 12:39:34;;;;;;;8.73;7.13;;;17.20;57.70;;;;;;5063120;28;20527;-57
2023/05/02 12:42:07;;;;;;;10.43;6.30;;;17.80;57.00;;;;;;5067055;28;20429;-57
2023/05/02 12:44:40;;;;;;;5.83;5.33;;;17.90;54.90;;;;;;5060319;28;20440;-57
2023/05/02 12:47:07;;;;;;;5.97;5.00;;;17.90;54.70;;;;;;5064000;28;20491;-57
2023/05/02 12:49:47;;;;;;;7.13;5.30;;;18.20;54.50;;;;;;5060395;28;20435;-57